Historyczne dane pomiarowe

Dodano dane terminowe – wersja testowa.

Dane z okresu 1951-2019

Wersja bazy: 1.34 [2019-03-16, lista zmian], aktualizacja planowana na 2019-04-15

Dane meteo z obszaru Polski uzyskane na podstawie danych udostępnionych przez Instytut Meteorologii i Gospodarki Wodnej – Państwowy Instytut Badawczy.

 

Wybierz Datę:    

       

TemperaturaWilgotnośćWiatrCiśnienieOpadyŚniegCzas trwania zjawisk
 Stacja t tx tn tng RH VA  wxwx mslp ppp RRR   cm mm wxwxwxwxwxwxwx
1995-09-11 18.7 25.2 11.9 9.2 62.0 13.4- 2.1--1003.7- 0.0--x- 5.0-------
1995-09-12 17.9 23.4 14.0 10.3 61.0 12.5- 1.9--1009.5- 0.0--x- 9.4-------
1995-09-13 19.8 25.2 14.2 13.9 67.0 15.4- 3.7--1003.7- 0.0--x- 6.7-------
1995-09-14 15.7 19.9 14.3 15.4 85.0 15.6- 2.6--1001.9- 1.0--x- 0.0-------
1995-09-15 13.4 16.3 12.5 12.4 88.0 13.8- 1.1--1001.5- 2.5--x- 0.0-------
1995-09-16 14.1 20.5 11.2 11.0 76.0 12.4- 1.4--1004.3- 0.0--x- 4.9-------
1995-09-17 15.4 22.4 7.1 4.7 72.0 12.1- 0.9--1010.1- 0.0--x- 8.9-------
1995-09-18 12.9 18.2 11.3 10.6 82.0 12.6- 3.4--1015.2- 0.0--x- 7.8-------
1995-09-19 12.2 15.7 10.8 9.5 82.0 11.8- 4.2--1008.0- 6.1--x- 1.3-------
1995-09-20 11.8 14.0 10.3 10.2 92.0 12.9- 3.5-- 996.8- 4.5--x- 0.0-------
1995-09-21 11.5 17.3 8.6 11.3 80.0 11.1- 2.1--1005.8- 0.0--x- 3.3-------
1995-09-22 10.2 17.6 4.8 2.5 82.0 10.3- 1.1--1012.1- 0.0--x- 8.8-------
1995-09-23 14.0 18.1 8.3 5.4 83.0 13.3- 1.8--1013.1- 0.0--x- 1.6-------
1995-09-24 14.4 20.2 11.1 8.7 78.0 13.0- 1.7--1006.4- 2.4--x- 0.6-------
1995-09-25 14.2 20.7 10.1 7.1 75.0 12.4- 2.0--1008.1- 0.0--x- 7.5-------
1995-09-26 13.3 17.5 10.7 9.2 79.0 12.1- 4.9--1007.9- 9.6--x- 0.9-------
1995-09-27 12.0 13.6 11.4 11.8 91.0 12.9- 4.8-- 998.1- 15.0--x- 0.0-------
1995-09-28 7.8 13.3 6.6 6.1 79.0 8.6- 6.9--1004.7- 0.6--x- 7.0-------
1995-09-29 7.0 12.6 4.1 2.5 80.0 8.2- 5.0--1006.1- 6.9--x- 5.8-------
1995-09-30 5.8 10.3 4.9 3.9 88.0 8.3- 4.2--1003.1- 7.2--x- 2.2-------
1995-10-01 8.5 12.2 2.6 1.3 70.0 7.3- 3.4--1004.5- 2.2--x- 5.6-------
1995-10-02 11.9 17.9 8.9 8.2 75.0 10.8- 2.7--1011.3- 0.0--x- 9.1-------
1995-10-03 16.0 21.4 6.8 3.9 74.0 13.0- 2.3--1011.9- 0.0--x- 5.9-------
1995-10-04 17.2 22.7 13.3 12.2 75.0 15.0- 2.6--1009.6- 0.0--x- 5.5-------
1995-10-05 17.0 23.2 12.6 9.5 73.0 14.4- 2.4--1009.1- 0.0--x- 8.9-------
1995-10-06 15.9 17.8 12.4 8.9 84.0 15.1- 1.1--1015.7- 0.0--x- 0.1-------
1995-10-07 16.5 21.8 12.9 10.6 81.0 15.3- 2.2--1018.4- 0.0--x- 6.5-------
1995-10-08 14.7 20.1 12.3 13.1 82.0 14.3- 1.4--1020.5- 0.0--x- 0.4-------
1995-10-09 17.3 25.8 8.8 6.6 75.0 14.3- 0.8--1018.1- 0.0--x- 9.0-------
1995-10-10 16.2 25.6 10.6 7.3 79.0 15.0- 1.2--1016.3- 0.0--x- 10.2-------
161.7 ms

 

Źródłem pochodzenia danych jest Instytut Meteorologii i Gospodarki Wodnej – Państwowy Instytut Badawczy. Dane Instytutu Meteorologii i Gospodarki Wodnej – Państwowego Instytutu Badawczego zostały przetworzone.

Dane źródłowe można odnaleźć na stronie https://dane.imgw.pl